createdAt,value
2022-12-02T00:00:16.719Z,67.20
2022-12-02T00:01:16.659Z,66.30
2022-12-02T00:02:16.643Z,70.10
2022-12-02T00:03:16.706Z,65.20
2022-12-02T00:04:16.740Z,71.10
2022-12-02T00:05:16.635Z,72.80
2022-12-02T00:06:16.614Z,67.70
2022-12-02T00:07:16.590Z,64.70
2022-12-02T00:08:16.653Z,67.00
2022-12-02T00:09:16.585Z,64.40
2022-12-02T00:10:16.617Z,65.20
2022-12-02T00:11:16.569Z,63.80
2022-12-02T00:12:16.576Z,65.00
2022-12-02T00:13:16.562Z,64.40
2022-12-02T00:14:16.556Z,61.70
2022-12-02T00:15:16.549Z,67.50
2022-12-02T00:16:16.597Z,64.90
2022-12-02T00:17:16.527Z,66.90
2022-12-02T00:18:16.522Z,65.90
2022-12-02T00:19:16.499Z,62.20
2022-12-02T00:20:16.517Z,64.20
2022-12-02T00:21:16.490Z,62.40
2022-12-02T00:22:16.486Z,66.10
2022-12-02T00:23:16.464Z,65.40
2022-12-02T00:24:16.459Z,66.90
2022-12-02T00:25:16.461Z,65.90
2022-12-02T00:26:16.504Z,66.90
2022-12-02T00:27:16.436Z,68.90
2022-12-02T00:28:16.435Z,67.40
2022-12-02T00:29:16.426Z,66.70
2022-12-02T00:30:16.476Z,67.90
2022-12-02T00:31:16.472Z,69.50
2022-12-02T00:32:16.391Z,67.60
2022-12-02T00:33:16.390Z,61.90
2022-12-02T00:34:16.379Z,62.90
2022-12-02T00:35:16.378Z,66.70
2022-12-02T00:36:16.403Z,63.80
2022-12-02T00:37:16.381Z,64.90
2022-12-02T00:38:16.353Z,63.50
2022-12-02T00:39:16.321Z,63.40
2022-12-02T00:40:16.323Z,62.40
2022-12-02T00:41:16.395Z,61.90
2022-12-02T00:42:16.305Z,63.30
2022-12-02T00:43:20.399Z,63.30
2022-12-02T00:44:16.293Z,61.90
2022-12-02T00:45:16.278Z,63.00
2022-12-02T00:46:16.351Z,59.10
2022-12-02T00:47:16.248Z,60.00
2022-12-02T00:48:16.258Z,60.10
2022-12-02T00:49:16.245Z,60.30
2022-12-02T00:50:16.255Z,66.30
2022-12-02T00:51:16.251Z,59.80
2022-12-02T00:52:16.220Z,59.60
2022-12-02T00:53:16.203Z,56.70
2022-12-02T00:54:16.228Z,58.50
2022-12-02T00:55:16.185Z,58.20
2022-12-02T00:56:16.196Z,57.80
2022-12-02T00:57:16.216Z,59.20
2022-12-02T00:58:16.170Z,56.60
2022-12-02T00:59:16.161Z,58.20
2022-12-02T01:00:16.143Z,60.10
2022-12-02T01:01:16.229Z,57.20
2022-12-02T01:02:16.227Z,59.00
2022-12-02T01:03:16.108Z,53.90
2022-12-02T01:04:16.152Z,55.90
2022-12-02T01:05:16.108Z,54.60
2022-12-02T01:06:16.110Z,54.60
2022-12-02T01:07:16.087Z,55.60
2022-12-02T01:08:16.080Z,54.20
2022-12-02T01:09:16.070Z,54.20
2022-12-02T01:10:16.053Z,52.90
2022-12-02T01:11:16.061Z,52.40
2022-12-02T01:12:16.034Z,51.40
2022-12-02T01:13:17.028Z,52.30
2022-12-02T01:14:16.020Z,51.80
2022-12-02T01:15:16.038Z,52.50
2022-12-02T01:16:16.072Z,49.80
2022-12-02T01:17:15.992Z,52.90
2022-12-02T01:18:15.987Z,48.90
2022-12-02T01:19:15.962Z,49.00
2022-12-02T01:20:15.975Z,48.50
2022-12-02T01:21:15.992Z,48.80
2022-12-02T01:22:15.956Z,47.10
2022-12-02T01:23:15.945Z,44.50
2022-12-02T01:24:15.932Z,48.00
2022-12-02T01:25:15.928Z,44.60
2022-12-02T01:26:15.928Z,45.90
2022-12-02T01:27:15.905Z,47.60
2022-12-02T01:28:15.898Z,46.50
2022-12-02T01:29:15.889Z,44.90
2022-12-02T01:30:15.886Z,46.60
2022-12-02T01:31:15.970Z,47.60
2022-12-02T01:32:15.936Z,43.90
2022-12-02T01:33:15.862Z,45.60
2022-12-02T01:34:15.865Z,44.40
2022-12-02T01:35:15.841Z,42.00
2022-12-02T01:36:15.857Z,41.00
2022-12-02T01:37:15.823Z,45.90
2022-12-02T01:38:15.815Z,43.90
2022-12-02T01:39:15.805Z,42.10
2022-12-02T01:40:15.794Z,42.90
2022-12-02T01:41:15.834Z,41.50
2022-12-02T01:42:15.839Z,42.70
2022-12-02T01:43:15.784Z,41.10
2022-12-02T01:44:15.773Z,41.90
2022-12-02T01:45:15.763Z,42.70
2022-12-02T01:46:15.800Z,39.90
2022-12-02T01:47:15.739Z,41.40
2022-12-02T01:48:15.730Z,41.70
2022-12-02T01:49:15.733Z,38.40
2022-12-02T01:50:15.769Z,39.40
2022-12-02T01:51:15.716Z,38.40
2022-12-02T01:52:15.701Z,36.50
2022-12-02T01:53:15.695Z,40.00
2022-12-02T01:54:15.695Z,34.90
2022-12-02T01:55:15.688Z,39.10
2022-12-02T01:56:15.695Z,37.30
2022-12-02T01:57:15.665Z,38.30
2022-12-02T01:58:15.652Z,35.30
2022-12-02T01:59:15.651Z,34.20
2022-12-02T02:00:15.629Z,31.70
2022-12-02T02:01:15.698Z,35.40
2022-12-02T02:02:15.636Z,35.30
2022-12-02T02:03:15.625Z,34.70
2022-12-02T02:04:15.613Z,33.60
2022-12-02T02:05:15.595Z,32.50
2022-12-02T02:06:15.611Z,31.00
2022-12-02T02:07:15.589Z,37.10
2022-12-02T02:08:16.567Z,35.40
2022-12-02T02:09:15.567Z,35.90
2022-12-02T02:10:15.536Z,34.90
2022-12-02T02:11:15.566Z,33.60
2022-12-02T02:12:15.547Z,34.70
2022-12-02T02:13:15.547Z,35.90
2022-12-02T02:14:15.516Z,38.50
2022-12-02T02:15:15.515Z,38.40
2022-12-02T02:16:15.583Z,38.70
2022-12-02T02:17:15.490Z,38.00
2022-12-02T02:18:15.466Z,37.30
2022-12-02T02:19:15.504Z,38.00
2022-12-02T02:20:15.460Z,39.10
2022-12-02T02:21:16.479Z,38.60
2022-12-02T02:22:15.442Z,40.00
2022-12-02T02:23:15.445Z,42.20
2022-12-02T02:24:15.442Z,39.00
2022-12-02T02:25:20.112Z,39.70
2022-12-02T02:26:16.425Z,43.40
2022-12-02T02:27:15.405Z,42.10
2022-12-02T02:28:15.396Z,40.70
2022-12-02T02:29:15.386Z,39.80
2022-12-02T02:30:15.375Z,39.50
2022-12-02T02:31:15.441Z,40.20
2022-12-02T02:32:15.358Z,38.80
2022-12-02T02:33:15.375Z,37.70
2022-12-02T02:34:15.334Z,39.70
2022-12-02T02:35:15.336Z,38.70
2022-12-02T02:36:15.347Z,37.80
2022-12-02T02:37:15.319Z,41.60
2022-12-02T02:38:15.312Z,40.30
2022-12-02T02:39:15.334Z,35.90
2022-12-02T02:40:15.290Z,40.20
2022-12-02T02:41:15.304Z,40.30
2022-12-02T02:42:15.267Z,42.00
2022-12-02T02:43:15.267Z,41.10
2022-12-02T02:44:15.258Z,44.80
2022-12-02T02:45:15.247Z,39.90
2022-12-02T02:46:15.328Z,39.60
2022-12-02T02:47:15.236Z,40.50
2022-12-02T02:48:15.219Z,41.50
2022-12-02T02:49:15.203Z,40.80
2022-12-02T02:50:15.203Z,44.10
2022-12-02T02:51:15.244Z,41.10
2022-12-02T02:52:15.185Z,41.60
2022-12-02T02:53:15.180Z,42.40
2022-12-02T02:54:15.160Z,42.70
2022-12-02T02:55:15.157Z,44.10
2022-12-02T02:56:15.210Z,41.60
2022-12-02T02:57:15.136Z,45.90
2022-12-02T02:58:15.143Z,39.70
2022-12-02T02:59:15.139Z,42.60
2022-12-02T03:00:15.119Z,45.10
2022-12-02T03:01:15.153Z,41.40
2022-12-02T03:02:15.151Z,44.20
2022-12-02T03:03:15.090Z,41.10
2022-12-02T03:04:15.077Z,41.20
2022-12-02T03:05:15.069Z,42.20
2022-12-02T03:06:15.082Z,40.60
2022-12-02T03:07:15.064Z,43.30
2022-12-02T03:08:15.050Z,40.10
2022-12-02T03:09:15.051Z,41.10
2022-12-02T03:10:15.051Z,43.40
2022-12-02T03:11:15.055Z,41.20
2022-12-02T03:12:15.026Z,41.60
2022-12-02T03:13:15.003Z,44.60
2022-12-02T03:14:15.927Z,44.50
2022-12-02T03:15:16.003Z,47.60
2022-12-02T03:16:15.078Z,41.90
2022-12-02T03:17:14.989Z,46.10
2022-12-02T03:18:14.996Z,43.80
2022-12-02T03:19:14.952Z,42.60
2022-12-02T03:20:14.939Z,46.90
2022-12-02T03:21:14.963Z,45.00
2022-12-02T03:22:14.923Z,42.40
2022-12-02T03:23:14.962Z,42.50
2022-12-02T03:24:14.913Z,44.10
2022-12-02T03:25:14.893Z,43.90
2022-12-02T03:26:14.920Z,44.50
2022-12-02T03:27:14.887Z,44.90
2022-12-02T03:28:14.884Z,43.60
2022-12-02T03:29:14.860Z,41.30
2022-12-02T03:30:18.292Z,42.20
2022-12-02T03:31:15.940Z,46.30
2022-12-02T03:32:14.848Z,41.40
2022-12-02T03:33:14.837Z,43.90
2022-12-02T03:34:14.856Z,45.70
2022-12-02T03:35:14.818Z,44.00
2022-12-02T03:36:14.834Z,42.70
2022-12-02T03:37:14.801Z,49.80
2022-12-02T03:38:14.792Z,42.60
2022-12-02T03:39:14.785Z,45.70
2022-12-02T03:40:14.831Z,47.70
2022-12-02T03:41:14.794Z,44.20
2022-12-02T03:42:14.764Z,45.90
2022-12-02T03:43:14.756Z,45.80
2022-12-02T03:44:14.745Z,46.60
2022-12-02T03:45:14.737Z,49.20
2022-12-02T03:46:14.843Z,50.10
2022-12-02T03:47:14.721Z,50.00
2022-12-02T03:48:14.716Z,45.20
2022-12-02T03:49:14.715Z,46.80
2022-12-02T03:50:14.691Z,43.00
2022-12-02T03:51:14.693Z,49.90
2022-12-02T03:52:14.678Z,48.00
2022-12-02T03:53:14.657Z,47.10
2022-12-02T03:54:14.698Z,44.90
2022-12-02T03:55:14.648Z,45.10
2022-12-02T03:56:14.664Z,44.60
2022-12-02T03:57:14.637Z,44.80
2022-12-02T03:58:14.645Z,42.20
2022-12-02T03:59:14.651Z,44.90
2022-12-02T04:00:16.407Z,40.90
2022-12-02T04:01:15.704Z,41.60
2022-12-02T04:02:14.650Z,39.80
2022-12-02T04:03:14.629Z,42.50
2022-12-02T04:04:14.569Z,37.80
2022-12-02T04:05:14.566Z,41.30
2022-12-02T04:06:14.576Z,37.40
2022-12-02T04:07:14.539Z,40.70
2022-12-02T04:08:14.610Z,41.90
2022-12-02T04:09:14.526Z,39.10
2022-12-02T04:10:14.518Z,43.80
2022-12-02T04:11:14.523Z,43.20
2022-12-02T04:12:14.503Z,40.30
2022-12-02T04:13:14.482Z,43.20
2022-12-02T04:14:14.484Z,44.80
2022-12-02T04:15:14.478Z,40.80
2022-12-02T04:16:14.555Z,42.70
2022-12-02T04:17:14.448Z,44.20
2022-12-02T04:18:14.449Z,44.70
2022-12-02T04:19:14.456Z,45.40
2022-12-02T04:20:14.436Z,43.80
2022-12-02T04:21:14.444Z,46.60
2022-12-02T04:22:14.422Z,47.80
2022-12-02T04:23:14.445Z,42.70
2022-12-02T04:24:14.401Z,43.00
2022-12-02T04:25:14.387Z,49.10
2022-12-02T04:26:14.398Z,48.70
2022-12-02T04:27:14.393Z,47.70
2022-12-02T04:28:14.366Z,51.50
2022-12-02T04:29:14.354Z,44.70
2022-12-02T04:30:14.354Z,49.90
2022-12-02T04:31:14.439Z,48.10
2022-12-02T04:32:14.349Z,48.80
2022-12-02T04:33:14.320Z,50.60
2022-12-02T04:34:14.376Z,50.10
2022-12-02T04:35:14.332Z,50.60
2022-12-02T04:36:14.303Z,48.30
2022-12-02T04:37:14.313Z,48.60
2022-12-02T04:38:14.305Z,52.20
2022-12-02T04:39:14.274Z,48.80
2022-12-02T04:40:14.274Z,51.40
2022-12-02T04:41:14.254Z,47.40
2022-12-02T04:42:14.266Z,51.90
2022-12-02T04:43:14.308Z,52.30
2022-12-02T04:44:18.123Z,48.70
2022-12-02T04:45:15.220Z,49.20
2022-12-02T04:46:14.256Z,53.40
2022-12-02T04:47:14.223Z,57.40
2022-12-02T04:48:14.196Z,58.70
2022-12-02T04:49:14.166Z,52.00
2022-12-02T04:50:14.168Z,55.10
2022-12-02T04:51:14.165Z,50.20
2022-12-02T04:52:14.173Z,55.50
2022-12-02T04:53:14.147Z,50.60
2022-12-02T04:54:14.135Z,49.90
2022-12-02T04:55:14.124Z,54.30
2022-12-02T04:56:14.118Z,49.20
2022-12-02T04:57:14.113Z,51.00
2022-12-02T04:58:14.095Z,49.40
2022-12-02T04:59:14.089Z,50.70
2022-12-02T05:00:14.145Z,46.50
2022-12-02T05:01:14.083Z,46.70
2022-12-02T05:02:14.072Z,51.90
2022-12-02T05:03:14.087Z,51.50
2022-12-02T05:04:15.079Z,49.70
2022-12-02T05:05:14.031Z,49.60
2022-12-02T05:06:14.014Z,49.10
2022-12-02T05:07:14.086Z,50.10
2022-12-02T05:08:14.128Z,53.00
2022-12-02T05:09:13.994Z,54.30
2022-12-02T05:10:13.976Z,48.50
2022-12-02T05:11:13.964Z,52.50
2022-12-02T05:12:14.989Z,48.80
2022-12-02T05:13:13.963Z,50.10
2022-12-02T05:14:13.951Z,50.00
2022-12-02T05:15:13.947Z,48.90
2022-12-02T05:16:13.996Z,49.80
2022-12-02T05:17:13.941Z,53.90
2022-12-02T05:18:13.919Z,47.30
2022-12-02T05:19:14.044Z,52.40
2022-12-02T05:20:13.899Z,53.00
2022-12-02T05:21:13.901Z,55.50
2022-12-02T05:22:13.891Z,54.40
2022-12-02T05:23:13.878Z,49.00
2022-12-02T05:24:13.873Z,51.40
2022-12-02T05:25:13.889Z,53.80
2022-12-02T05:26:13.847Z,54.70
2022-12-02T05:27:13.849Z,54.00
2022-12-02T05:28:13.821Z,57.80
2022-12-02T05:29:13.820Z,54.80
2022-12-02T05:30:13.807Z,57.80
2022-12-02T05:31:13.866Z,59.10
2022-12-02T05:32:13.813Z,52.80
2022-12-02T05:33:13.778Z,57.10
2022-12-02T05:34:13.769Z,52.10
2022-12-02T05:35:13.766Z,55.60
2022-12-02T05:36:13.747Z,55.10
2022-12-02T05:37:13.778Z,58.70
2022-12-02T05:38:13.725Z,58.00
2022-12-02T05:39:13.720Z,56.10
2022-12-02T05:40:13.712Z,56.40
2022-12-02T05:41:13.708Z,54.90
2022-12-02T05:42:13.723Z,55.50
2022-12-02T05:43:13.690Z,55.10
2022-12-02T05:44:13.676Z,58.80
2022-12-02T05:45:13.671Z,55.50
2022-12-02T05:46:13.684Z,55.30
2022-12-02T05:47:13.737Z,55.10
2022-12-02T05:48:13.636Z,55.50
2022-12-02T05:49:13.636Z,58.40
2022-12-02T05:50:13.626Z,55.40
2022-12-02T05:51:13.630Z,56.00
2022-12-02T05:52:13.619Z,59.50
2022-12-02T05:53:13.594Z,64.50
2022-12-02T05:54:13.589Z,62.50
2022-12-02T05:55:13.579Z,64.00
2022-12-02T05:56:13.569Z,62.00
2022-12-02T05:57:13.582Z,64.60
2022-12-02T05:58:13.552Z,64.40
2022-12-02T05:59:13.549Z,63.20
2022-12-02T06:00:13.547Z,62.00
2022-12-02T06:01:13.528Z,59.40
2022-12-02T06:02:13.602Z,63.90
2022-12-02T06:03:14.669Z,63.70
2022-12-02T06:04:13.502Z,61.30
2022-12-02T06:05:13.490Z,60.50
2022-12-02T06:06:13.555Z,61.00
2022-12-02T06:07:13.521Z,61.70
2022-12-02T06:08:13.517Z,62.30
2022-12-02T06:09:13.456Z,62.60
2022-12-02T06:10:13.468Z,62.60
2022-12-02T06:11:13.427Z,63.50
2022-12-02T06:12:13.447Z,63.60
2022-12-02T06:13:13.429Z,60.10
2022-12-02T06:14:13.439Z,58.40
2022-12-02T06:15:13.403Z,62.10
2022-12-02T06:16:13.407Z,61.80
2022-12-02T06:17:13.410Z,62.70
2022-12-02T06:18:13.430Z,62.90
2022-12-02T06:19:13.359Z,62.80
2022-12-02T06:20:13.364Z,64.60
2022-12-02T06:21:13.353Z,58.50
2022-12-02T06:22:13.368Z,60.90
2022-12-02T06:23:13.355Z,62.50
2022-12-02T06:24:13.334Z,64.60
2022-12-02T06:25:13.325Z,64.80
2022-12-02T06:26:13.315Z,68.60
2022-12-02T06:27:13.294Z,62.70
2022-12-02T06:28:13.308Z,67.90
2022-12-02T06:29:13.283Z,63.90
2022-12-02T06:30:13.274Z,61.00
2022-12-02T06:31:13.309Z,63.90
2022-12-02T06:32:13.282Z,65.40
2022-12-02T06:33:16.853Z,65.40
2022-12-02T06:34:14.235Z,65.40
2022-12-02T06:35:13.251Z,67.20
2022-12-02T06:36:13.246Z,63.50
2022-12-02T06:37:13.202Z,66.70
2022-12-02T06:38:13.251Z,63.50
2022-12-02T06:39:13.176Z,69.50
2022-12-02T06:40:27.950Z,66.40
2022-12-02T06:41:15.172Z,72.10
2022-12-02T06:42:13.158Z,70.10
2022-12-02T06:43:13.163Z,66.10
2022-12-02T06:44:13.143Z,66.70
2022-12-02T06:45:13.126Z,74.10
2022-12-02T06:46:13.220Z,69.00
2022-12-02T06:47:13.109Z,69.80
2022-12-02T06:48:13.122Z,71.30
2022-12-02T06:49:13.092Z,68.10
2022-12-02T06:50:13.092Z,71.10
2022-12-02T06:51:13.106Z,68.10
2022-12-02T06:52:13.067Z,68.60
2022-12-02T06:53:13.084Z,65.50
2022-12-02T06:54:13.049Z,68.00
2022-12-02T06:55:13.036Z,70.80
2022-12-02T06:56:13.022Z,75.20
2022-12-02T06:57:13.024Z,69.60
2022-12-02T06:58:13.025Z,72.90
2022-12-02T06:59:13.006Z,77.60
2022-12-02T07:00:12.987Z,87.30
2022-12-02T07:01:13.045Z,73.70
2022-12-02T07:02:13.003Z,71.10
2022-12-02T07:03:12.993Z,75.10
2022-12-02T07:04:12.955Z,76.30
2022-12-02T07:05:12.956Z,73.70
2022-12-02T07:06:12.932Z,72.70
2022-12-02T07:07:12.924Z,73.60
2022-12-02T07:08:13.114Z,77.50
2022-12-02T07:09:17.615Z,78.30
2022-12-02T07:10:14.925Z,79.80
2022-12-02T07:11:12.884Z,80.20
2022-12-02T07:12:12.881Z,78.60
2022-12-02T07:13:12.893Z,88.10
2022-12-02T07:14:12.868Z,84.90
2022-12-02T07:15:12.846Z,82.40
2022-12-02T07:16:12.900Z,86.00
2022-12-02T07:17:12.834Z,79.60
2022-12-02T07:18:12.859Z,83.80
2022-12-02T07:19:12.813Z,83.50
2022-12-02T07:20:12.805Z,84.90
2022-12-02T07:21:12.815Z,90.70
2022-12-02T07:22:12.791Z,89.70
2022-12-02T07:23:12.804Z,90.60
2022-12-02T07:24:12.780Z,94.40
2022-12-02T07:25:12.759Z,90.20
2022-12-02T07:26:12.759Z,83.90
2022-12-02T07:27:12.740Z,95.80
2022-12-02T07:28:12.885Z,92.80
2022-12-02T07:29:16.093Z,101.80
2022-12-02T07:30:13.730Z,96.90
2022-12-02T07:31:12.770Z,91.70
2022-12-02T07:32:12.697Z,95.80
2022-12-02T07:33:12.706Z,102.70
2022-12-02T07:34:12.679Z,95.40
2022-12-02T07:35:12.663Z,97.20
2022-12-02T07:36:12.667Z,102.10
2022-12-02T07:37:12.654Z,101.30
2022-12-02T07:38:12.670Z,105.10
2022-12-02T07:39:12.646Z,107.30
2022-12-02T07:40:12.639Z,102.70
2022-12-02T07:41:12.613Z,104.50
2022-12-02T07:42:12.613Z,108.20
2022-12-02T07:43:12.702Z,115.80
2022-12-02T07:44:12.586Z,115.80
2022-12-02T07:45:12.580Z,104.10
2022-12-02T07:46:12.611Z,100.90
2022-12-02T07:47:12.559Z,103.40
2022-12-02T07:48:12.570Z,109.40
2022-12-02T07:49:12.561Z,111.10
2022-12-02T07:50:12.531Z,107.50
2022-12-02T07:51:12.519Z,116.70
2022-12-02T07:52:12.516Z,102.10
2022-12-02T07:53:12.526Z,94.20
2022-12-02T07:54:12.525Z,109.80
2022-12-02T07:55:12.494Z,116.90
2022-12-02T07:56:12.482Z,111.10
2022-12-02T07:57:12.478Z,96.90
2022-12-02T07:58:12.509Z,109.20
2022-12-02T07:59:13.470Z,101.00
2022-12-02T08:00:12.453Z,113.20
2022-12-02T08:01:18.819Z,111.40
2022-12-02T08:02:14.435Z,108.70
2022-12-02T08:03:12.436Z,97.80
2022-12-02T08:04:12.408Z,97.90
2022-12-02T08:05:12.449Z,101.80
2022-12-02T08:06:12.418Z,105.90
2022-12-02T08:07:12.383Z,102.50
2022-12-02T08:08:12.410Z,92.60
2022-12-02T08:09:12.367Z,87.20
2022-12-02T08:10:12.353Z,97.90
2022-12-02T08:11:12.344Z,95.80
2022-12-02T08:12:12.340Z,84.60
2022-12-02T08:13:12.349Z,86.70
2022-12-02T08:14:12.364Z,88.80
2022-12-02T08:15:12.311Z,91.90
2022-12-02T08:16:12.318Z,81.60
2022-12-02T08:17:12.295Z,80.80
2022-12-02T08:18:12.390Z,78.90
2022-12-02T08:19:12.274Z,75.80
2022-12-02T08:20:12.273Z,76.60
2022-12-02T08:21:12.264Z,78.50
2022-12-02T08:22:12.263Z,75.80
2022-12-02T08:23:12.254Z,71.60
2022-12-02T08:24:12.234Z,67.30
2022-12-02T08:25:44.253Z,71.30
2022-12-02T08:26:12.203Z,70.90
2022-12-02T08:27:12.203Z,72.70
2022-12-02T08:28:12.215Z,74.30
2022-12-02T08:29:12.194Z,77.30
2022-12-02T08:30:12.173Z,70.30
2022-12-02T08:31:12.206Z,73.00
2022-12-02T08:32:12.154Z,74.80
2022-12-02T08:33:13.178Z,72.50
2022-12-02T08:34:12.152Z,75.90
2022-12-02T08:35:12.140Z,75.60
2022-12-02T08:36:12.129Z,72.50
2022-12-02T08:37:12.121Z,74.30
2022-12-02T08:38:12.114Z,67.90
2022-12-02T08:39:12.122Z,71.60
2022-12-02T08:40:12.102Z,74.00
2022-12-02T08:41:13.976Z,76.30
2022-12-02T08:42:13.068Z,73.30
2022-12-02T08:43:12.096Z,78.30
2022-12-02T08:44:12.076Z,76.30
2022-12-02T08:45:12.089Z,76.90
2022-12-02T08:46:12.114Z,82.30
2022-12-02T08:47:12.035Z,81.70
2022-12-02T08:48:12.054Z,74.10
2022-12-02T08:49:12.011Z,75.50
2022-12-02T08:50:12.996Z,75.70
2022-12-02T08:51:11.990Z,77.00
2022-12-02T08:52:11.994Z,78.10
2022-12-02T08:53:12.001Z,81.80
2022-12-02T08:54:11.972Z,81.90
2022-12-02T08:55:11.966Z,86.20
2022-12-02T08:56:11.959Z,86.10
2022-12-02T08:57:11.951Z,81.90
2022-12-02T08:58:11.962Z,84.70
2022-12-02T08:59:11.930Z,85.70
2022-12-02T09:00:11.931Z,83.80
2022-12-02T09:01:11.945Z,85.00
2022-12-02T09:02:11.931Z,79.30
2022-12-02T09:03:11.918Z,82.90
2022-12-02T09:04:11.883Z,90.50
2022-12-02T09:05:11.877Z,87.00
2022-12-02T09:06:11.870Z,84.90
2022-12-02T09:07:11.872Z,84.60
2022-12-02T09:08:11.945Z,88.50
2022-12-02T09:09:11.904Z,85.00
2022-12-02T09:10:11.909Z,89.60
2022-12-02T09:11:11.997Z,95.40
2022-12-02T09:12:11.817Z,88.30
2022-12-02T09:13:11.828Z,95.10
2022-12-02T09:14:11.796Z,86.30
2022-12-02T09:15:11.803Z,94.00
2022-12-02T09:16:11.820Z,96.30
2022-12-02T09:17:11.783Z,93.50
2022-12-02T09:18:14.498Z,87.00
2022-12-02T09:19:11.790Z,88.40
2022-12-02T09:20:11.753Z,77.40
2022-12-02T09:21:11.823Z,90.60
2022-12-02T09:22:11.737Z,95.00
2022-12-02T09:23:11.747Z,97.40
2022-12-02T09:24:11.734Z,93.40
2022-12-02T09:25:11.720Z,100.70
2022-12-02T09:26:11.718Z,94.90
2022-12-02T09:27:11.726Z,101.10
2022-12-02T09:28:11.711Z,94.30
2022-12-02T09:29:11.682Z,89.50
2022-12-02T09:30:11.676Z,87.90
2022-12-02T09:31:11.704Z,91.70
2022-12-02T09:32:12.490Z,89.10
2022-12-02T09:33:11.676Z,88.80
2022-12-02T09:34:11.638Z,91.40
2022-12-02T09:35:11.640Z,93.70
2022-12-02T09:36:11.646Z,98.70
2022-12-02T09:37:11.627Z,93.10
2022-12-02T09:38:11.634Z,90.80
2022-12-02T09:39:11.601Z,93.40
2022-12-02T09:40:11.601Z,97.70
2022-12-02T09:41:11.589Z,89.30
2022-12-02T09:42:11.575Z,83.40
2022-12-02T09:43:11.679Z,83.70
2022-12-02T09:44:11.567Z,77.50
2022-12-02T09:45:11.558Z,77.70
2022-12-02T09:46:11.605Z,79.60
2022-12-02T09:47:11.546Z,78.50
2022-12-02T09:48:11.533Z,83.30
2022-12-02T09:49:11.547Z,82.10
2022-12-02T09:50:11.513Z,83.40
2022-12-02T09:51:11.512Z,79.70
2022-12-02T09:52:11.505Z,76.80
2022-12-02T09:53:11.493Z,72.30
2022-12-02T09:54:11.496Z,61.00
2022-12-02T09:55:11.475Z,65.10
2022-12-02T09:56:11.475Z,66.10
2022-12-02T09:57:11.468Z,67.60
2022-12-02T09:58:11.459Z,56.80
2022-12-02T09:59:11.464Z,63.60
2022-12-02T10:00:11.436Z,58.90
2022-12-02T10:01:11.432Z,55.20
2022-12-02T10:02:11.477Z,63.00
2022-12-02T10:03:16.900Z,61.50
2022-12-02T10:04:13.429Z,59.10
2022-12-02T10:05:11.397Z,62.10
2022-12-02T10:06:11.381Z,59.80
2022-12-02T10:07:11.382Z,61.20
2022-12-02T10:08:11.428Z,56.40
2022-12-02T10:09:11.386Z,56.40
2022-12-02T10:10:11.341Z,56.60
2022-12-02T10:11:11.375Z,51.70
2022-12-02T10:12:11.349Z,54.70
2022-12-02T10:13:11.338Z,54.50
2022-12-02T10:14:11.343Z,56.10
2022-12-02T10:15:11.316Z,55.30
2022-12-02T10:16:11.330Z,57.40
2022-12-02T10:17:11.296Z,52.50
2022-12-02T10:18:11.297Z,49.30
2022-12-02T10:19:11.306Z,49.80
2022-12-02T10:20:11.282Z,47.80
2022-12-02T10:21:11.270Z,48.80
2022-12-02T10:22:11.256Z,43.00
2022-12-02T10:23:11.252Z,43.00
2022-12-02T10:24:11.267Z,43.90
2022-12-02T10:25:11.239Z,40.20
2022-12-02T10:26:11.233Z,41.50
2022-12-02T10:27:11.221Z,38.80
2022-12-02T10:28:11.212Z,36.20
2022-12-02T10:29:11.292Z,40.20
2022-12-02T10:30:11.197Z,37.80
2022-12-02T10:31:11.237Z,39.50
2022-12-02T10:32:11.185Z,39.10
2022-12-02T10:33:11.180Z,38.20
2022-12-02T10:34:11.187Z,38.40
2022-12-02T10:35:11.168Z,37.00
2022-12-02T10:36:11.148Z,36.20
2022-12-02T10:37:11.156Z,34.70
2022-12-02T10:38:11.129Z,37.30
2022-12-02T10:39:11.137Z,32.80
2022-12-02T10:40:11.113Z,35.70
2022-12-02T10:41:11.106Z,36.80
2022-12-02T10:42:11.091Z,37.30
2022-12-02T10:43:11.090Z,34.50
2022-12-02T10:44:11.091Z,33.00
2022-12-02T10:45:11.070Z,35.10
2022-12-02T10:46:11.113Z,34.20
2022-12-02T10:47:11.099Z,36.10
2022-12-02T10:48:11.048Z,31.20
2022-12-02T10:49:11.058Z,33.70
2022-12-02T10:50:11.028Z,33.10
2022-12-02T10:51:11.024Z,34.20
2022-12-02T10:52:11.009Z,36.90
2022-12-02T10:53:12.004Z,34.80
2022-12-02T10:54:11.016Z,32.70
2022-12-02T10:55:10.990Z,33.60
2022-12-02T10:56:10.978Z,33.10
2022-12-02T10:57:10.962Z,33.10
2022-12-02T10:58:10.957Z,34.50
2022-12-02T10:59:10.974Z,33.10
2022-12-02T11:00:10.948Z,31.90
2022-12-02T11:01:12.011Z,34.40
2022-12-02T11:02:10.985Z,33.20
2022-12-02T11:03:10.923Z,36.90
2022-12-02T11:04:10.929Z,35.50
2022-12-02T11:05:10.905Z,33.90
2022-12-02T11:06:10.890Z,32.40
2022-12-02T11:07:10.886Z,31.70
2022-12-02T11:08:13.773Z,32.40
2022-12-02T11:09:38.998Z,33.00
2022-12-02T11:10:12.868Z,30.80
2022-12-02T11:11:10.856Z,32.90
2022-12-02T11:12:10.852Z,30.90
2022-12-02T11:13:10.837Z,34.30
2022-12-02T11:14:10.848Z,34.20
2022-12-02T11:15:10.831Z,30.80
2022-12-02T11:16:10.922Z,29.70
2022-12-02T11:17:10.848Z,29.10
2022-12-02T11:18:10.802Z,31.80
2022-12-02T11:19:10.809Z,30.40
2022-12-02T11:20:10.782Z,30.50
2022-12-02T11:21:10.786Z,28.20
2022-12-02T11:22:10.762Z,29.20
2022-12-02T11:23:10.749Z,31.60
2022-12-02T11:24:10.783Z,33.20
2022-12-02T11:25:10.732Z,29.90
2022-12-02T11:26:10.724Z,27.90
2022-12-02T11:27:16.557Z,28.70
2022-12-02T11:28:12.714Z,28.90
2022-12-02T11:29:10.744Z,28.80
2022-12-02T11:30:10.697Z,26.10
2022-12-02T11:31:10.843Z,27.70
2022-12-02T11:32:10.697Z,27.30
2022-12-02T11:33:10.677Z,33.00
2022-12-02T11:34:10.684Z,28.40
2022-12-02T11:35:17.505Z,30.80
2022-12-02T11:36:12.643Z,26.90
2022-12-02T11:37:10.643Z,30.50
2022-12-02T11:38:10.636Z,26.60
2022-12-02T11:39:10.658Z,26.90
2022-12-02T11:40:10.621Z,27.70
2022-12-02T11:41:10.606Z,29.70
2022-12-02T11:42:10.638Z,25.60
2022-12-02T11:43:10.601Z,24.10
2022-12-02T11:44:10.605Z,27.80
2022-12-02T11:45:10.577Z,26.90
2022-12-02T11:46:10.623Z,24.20
2022-12-02T11:47:10.577Z,24.80
2022-12-02T11:48:10.552Z,25.40
2022-12-02T11:49:10.564Z,26.00
2022-12-02T11:50:10.543Z,27.10
2022-12-02T11:51:10.528Z,26.50
2022-12-02T11:52:10.525Z,25.10
2022-12-02T11:53:10.517Z,27.40
2022-12-02T11:54:10.520Z,26.40
2022-12-02T11:55:10.491Z,26.80
2022-12-02T11:56:10.478Z,23.50
2022-12-02T11:57:10.478Z,25.80
2022-12-02T11:58:10.471Z,24.10
2022-12-02T11:59:10.483Z,25.20
2022-12-02T12:00:10.449Z,23.70
2022-12-02T12:01:10.443Z,24.60
2022-12-02T12:02:10.492Z,23.60
2022-12-02T12:03:10.490Z,23.40
2022-12-02T12:04:10.437Z,25.10
2022-12-02T12:05:10.414Z,24.80
2022-12-02T12:06:10.406Z,23.60
2022-12-02T12:07:10.398Z,28.80
2022-12-02T12:08:10.431Z,23.90
2022-12-02T12:09:10.401Z,23.90
2022-12-02T12:10:10.381Z,24.50
2022-12-02T12:11:10.364Z,23.60
2022-12-02T12:12:10.358Z,28.20
2022-12-02T12:13:10.349Z,26.10
2022-12-02T12:14:10.357Z,27.10
2022-12-02T12:15:10.336Z,25.20
2022-12-02T12:16:10.368Z,24.90
2022-12-02T12:17:10.432Z,26.00
2022-12-02T12:18:10.323Z,25.50
2022-12-02T12:19:10.325Z,25.80
2022-12-02T12:20:10.295Z,28.30
2022-12-02T12:21:10.287Z,27.50
2022-12-02T12:22:10.285Z,28.60
2022-12-02T12:23:10.266Z,26.70
2022-12-02T12:24:10.429Z,26.90
2022-12-02T12:25:10.458Z,27.10
2022-12-02T12:26:10.250Z,26.20
2022-12-02T12:27:10.235Z,28.90
2022-12-02T12:28:10.241Z,32.00
2022-12-02T12:29:10.235Z,26.80
2022-12-02T12:30:10.238Z,27.80
2022-12-02T12:31:10.284Z,25.80
2022-12-02T12:32:10.183Z,28.40
2022-12-02T12:33:10.185Z,26.40
2022-12-02T12:34:10.204Z,27.70
2022-12-02T12:35:10.188Z,30.10
2022-12-02T12:36:10.157Z,28.80
2022-12-02T12:37:10.151Z,26.40
2022-12-02T12:38:10.150Z,29.70
2022-12-02T12:39:10.136Z,28.00
2022-12-02T12:40:10.149Z,28.90
2022-12-02T12:41:10.122Z,31.60
2022-12-02T12:42:10.111Z,29.40
2022-12-02T12:43:11.102Z,28.60
2022-12-02T12:44:11.095Z,31.20
2022-12-02T12:45:10.114Z,30.80
2022-12-02T12:46:10.103Z,29.20
2022-12-02T12:47:10.065Z,31.10
2022-12-02T12:48:10.061Z,30.60
2022-12-02T12:49:10.161Z,28.50
2022-12-02T12:50:10.198Z,33.10
2022-12-02T12:51:10.039Z,29.90